sensor_id;sensor_type;location;lat;lon;timestamp;P1;durP1;ratioP1;P2;durP2;ratioP2
57947;SDS011;43754;56.992;24.292;2022-12-18T00:01:18;155.60;;;44.78;;
57947;SDS011;43754;56.992;24.292;2022-12-18T00:03:51;134.48;;;41.80;;
57947;SDS011;43754;56.992;24.292;2022-12-18T00:06:26;169.25;;;46.70;;
57947;SDS011;43754;56.992;24.292;2022-12-18T00:08:59;148.75;;;44.88;;
57947;SDS011;43754;56.992;24.292;2022-12-18T00:11:32;152.05;;;43.00;;
57947;SDS011;43754;56.992;24.292;2022-12-18T00:14:05;131.95;;;39.75;;
57947;SDS011;43754;56.992;24.292;2022-12-18T00:16:37;140.35;;;42.13;;
57947;SDS011;43754;56.992;24.292;2022-12-18T00:19:10;126.43;;;39.17;;
57947;SDS011;43754;56.992;24.292;2022-12-18T00:21:43;146.98;;;42.13;;
57947;SDS011;43754;56.992;24.292;2022-12-18T00:24:15;128.00;;;35.17;;
57947;SDS011;43754;56.992;24.292;2022-12-18T00:26:47;170.00;;;40.97;;
57947;SDS011;43754;56.992;24.292;2022-12-18T00:29:20;151.60;;;40.00;;
57947;SDS011;43754;56.992;24.292;2022-12-18T00:31:52;132.65;;;39.65;;
57947;SDS011;43754;56.992;24.292;2022-12-18T00:34:25;185.95;;;45.35;;
57947;SDS011;43754;56.992;24.292;2022-12-18T00:36:57;148.43;;;42.10;;
57947;SDS011;43754;56.992;24.292;2022-12-18T00:39:29;129.35;;;37.60;;
57947;SDS011;43754;56.992;24.292;2022-12-18T00:42:01;162.05;;;41.92;;
57947;SDS011;43754;56.992;24.292;2022-12-18T00:44:53;141.07;;;39.13;;
57947;SDS011;43754;56.992;24.292;2022-12-18T00:47:25;147.07;;;40.13;;
57947;SDS011;43754;56.992;24.292;2022-12-18T00:49:57;131.70;;;39.67;;
57947;SDS011;43754;56.992;24.292;2022-12-18T00:52:29;142.00;;;41.53;;
57947;SDS011;43754;56.992;24.292;2022-12-18T00:55:01;146.07;;;42.10;;
57947;SDS011;43754;56.992;24.292;2022-12-18T00:57:37;125.72;;;36.58;;
57947;SDS011;43754;56.992;24.292;2022-12-18T01:00:13;132.48;;;39.00;;
57947;SDS011;43754;56.992;24.292;2022-12-18T01:02:46;123.57;;;36.97;;
57947;SDS011;43754;56.992;24.292;2022-12-18T01:05:18;139.80;;;41.60;;
57947;SDS011;43754;56.992;24.292;2022-12-18T01:07:50;147.48;;;41.78;;
57947;SDS011;43754;56.992;24.292;2022-12-18T01:10:24;153.20;;;41.10;;
57947;SDS011;43754;56.992;24.292;2022-12-18T01:12:56;136.35;;;38.78;;
57947;SDS011;43754;56.992;24.292;2022-12-18T01:15:30;124.65;;;36.60;;
57947;SDS011;43754;56.992;24.292;2022-12-18T01:18:01;133.93;;;38.42;;
57947;SDS011;43754;56.992;24.292;2022-12-18T01:20:37;153.15;;;43.45;;
57947;SDS011;43754;56.992;24.292;2022-12-18T01:23:09;141.07;;;43.13;;
57947;SDS011;43754;56.992;24.292;2022-12-18T01:25:41;145.98;;;40.10;;
57947;SDS011;43754;56.992;24.292;2022-12-18T01:28:13;150.70;;;43.38;;
57947;SDS011;43754;56.992;24.292;2022-12-18T01:30:47;156.27;;;41.75;;
57947;SDS011;43754;56.992;24.292;2022-12-18T01:33:19;140.90;;;39.88;;
57947;SDS011;43754;56.992;24.292;2022-12-18T01:35:51;129.10;;;38.10;;
57947;SDS011;43754;56.992;24.292;2022-12-18T01:38:25;132.93;;;35.40;;
57947;SDS011;43754;56.992;24.292;2022-12-18T01:40:57;145.13;;;39.63;;
57947;SDS011;43754;56.992;24.292;2022-12-18T01:43:45;134.07;;;38.90;;
57947;SDS011;43754;56.992;24.292;2022-12-18T01:46:21;134.52;;;39.50;;
57947;SDS011;43754;56.992;24.292;2022-12-18T01:48:55;137.27;;;41.30;;
57947;SDS011;43754;56.992;24.292;2022-12-18T01:51:30;160.10;;;42.22;;
57947;SDS011;43754;56.992;24.292;2022-12-18T01:54:02;147.15;;;40.97;;
57947;SDS011;43754;56.992;24.292;2022-12-18T01:56:34;138.13;;;42.90;;
57947;SDS011;43754;56.992;24.292;2022-12-18T01:59:06;135.35;;;38.83;;
57947;SDS011;43754;56.992;24.292;2022-12-18T02:01:42;125.45;;;37.70;;
57947;SDS011;43754;56.992;24.292;2022-12-18T02:04:19;133.82;;;39.42;;
57947;SDS011;43754;56.992;24.292;2022-12-18T02:06:54;142.32;;;41.35;;
57947;SDS011;43754;56.992;24.292;2022-12-18T02:09:35;139.40;;;40.40;;
57947;SDS011;43754;56.992;24.292;2022-12-18T02:12:13;117.85;;;37.38;;
57947;SDS011;43754;56.992;24.292;2022-12-18T02:14:53;128.77;;;36.67;;
57947;SDS011;43754;56.992;24.292;2022-12-18T02:20:09;118.25;;;35.63;;
57947;SDS011;43754;56.992;24.292;2022-12-18T02:22:58;113.70;;;36.20;;
57947;SDS011;43754;56.992;24.292;2022-12-18T02:28:33;111.95;;;34.22;;
57947;SDS011;43754;56.992;24.292;2022-12-18T02:31:11;104.72;;;30.85;;
57947;SDS011;43754;56.992;24.292;2022-12-18T02:33:46;103.47;;;31.05;;
57947;SDS011;43754;56.992;24.292;2022-12-18T02:36:20;96.95;;;29.73;;
57947;SDS011;43754;56.992;24.292;2022-12-18T02:38:56;107.80;;;32.35;;
57947;SDS011;43754;56.992;24.292;2022-12-18T02:41:33;94.60;;;29.25;;
57947;SDS011;43754;56.992;24.292;2022-12-18T02:44:09;97.05;;;27.88;;
57947;SDS011;43754;56.992;24.292;2022-12-18T02:46:44;97.35;;;28.33;;
57947;SDS011;43754;56.992;24.292;2022-12-18T02:49:22;99.63;;;28.38;;
57947;SDS011;43754;56.992;24.292;2022-12-18T02:52:05;89.80;;;27.83;;
57947;SDS011;43754;56.992;24.292;2022-12-18T02:54:52;92.93;;;26.50;;
57947;SDS011;43754;56.992;24.292;2022-12-18T02:57:35;84.65;;;26.13;;
57947;SDS011;43754;56.992;24.292;2022-12-18T03:00:14;78.78;;;25.85;;
57947;SDS011;43754;56.992;24.292;2022-12-18T03:02:51;74.15;;;25.35;;
57947;SDS011;43754;56.992;24.292;2022-12-18T03:05:31;81.30;;;27.80;;
57947;SDS011;43754;56.992;24.292;2022-12-18T03:08:09;71.15;;;24.90;;
57947;SDS011;43754;56.992;24.292;2022-12-18T03:10:49;81.72;;;25.67;;
57947;SDS011;43754;56.992;24.292;2022-12-18T03:13:27;81.75;;;24.27;;
57947;SDS011;43754;56.992;24.292;2022-12-18T03:16:03;78.53;;;25.45;;
57947;SDS011;43754;56.992;24.292;2022-12-18T03:18:38;75.25;;;24.85;;
57947;SDS011;43754;56.992;24.292;2022-12-18T03:21:18;75.63;;;25.20;;
57947;SDS011;43754;56.992;24.292;2022-12-18T03:23:54;80.05;;;24.88;;
57947;SDS011;43754;56.992;24.292;2022-12-18T03:26:30;81.97;;;25.35;;
57947;SDS011;43754;56.992;24.292;2022-12-18T03:29:07;75.63;;;23.60;;
57947;SDS011;43754;56.992;24.292;2022-12-18T03:31:46;88.68;;;28.35;;
57947;SDS011;43754;56.992;24.292;2022-12-18T03:34:23;75.00;;;25.15;;
57947;SDS011;43754;56.992;24.292;2022-12-18T03:37:00;74.53;;;23.95;;
57947;SDS011;43754;56.992;24.292;2022-12-18T03:39:34;84.80;;;26.50;;
57947;SDS011;43754;56.992;24.292;2022-12-18T03:42:09;67.13;;;24.02;;
57947;SDS011;43754;56.992;24.292;2022-12-18T03:44:54;76.95;;;26.45;;
57947;SDS011;43754;56.992;24.292;2022-12-18T03:47:33;72.72;;;23.33;;
57947;SDS011;43754;56.992;24.292;2022-12-18T03:50:12;76.57;;;26.15;;
57947;SDS011;43754;56.992;24.292;2022-12-18T03:52:52;82.22;;;23.20;;
57947;SDS011;43754;56.992;24.292;2022-12-18T03:55:29;71.80;;;25.23;;
57947;SDS011;43754;56.992;24.292;2022-12-18T03:58:08;81.22;;;27.77;;
57947;SDS011;43754;56.992;24.292;2022-12-18T04:00:58;74.90;;;25.20;;
57947;SDS011;43754;56.992;24.292;2022-12-18T04:03:33;79.88;;;25.33;;
57947;SDS011;43754;56.992;24.292;2022-12-18T04:06:07;84.20;;;25.25;;
57947;SDS011;43754;56.992;24.292;2022-12-18T04:08:41;76.28;;;24.48;;
57947;SDS011;43754;56.992;24.292;2022-12-18T04:11:18;84.07;;;23.42;;
57947;SDS011;43754;56.992;24.292;2022-12-18T04:13:53;66.35;;;21.83;;
57947;SDS011;43754;56.992;24.292;2022-12-18T04:16:29;79.10;;;25.70;;
57947;SDS011;43754;56.992;24.292;2022-12-18T04:19:05;83.57;;;25.80;;
57947;SDS011;43754;56.992;24.292;2022-12-18T04:21:42;74.10;;;23.67;;
57947;SDS011;43754;56.992;24.292;2022-12-18T04:24:16;70.70;;;22.48;;
57947;SDS011;43754;56.992;24.292;2022-12-18T04:26:57;70.65;;;22.23;;
57947;SDS011;43754;56.992;24.292;2022-12-18T04:29:35;71.03;;;24.63;;
57947;SDS011;43754;56.992;24.292;2022-12-18T04:32:08;73.05;;;23.35;;
57947;SDS011;43754;56.992;24.292;2022-12-18T04:34:41;91.57;;;25.55;;
57947;SDS011;43754;56.992;24.292;2022-12-18T04:37:14;73.10;;;25.67;;
57947;SDS011;43754;56.992;24.292;2022-12-18T04:39:46;73.30;;;25.85;;
57947;SDS011;43754;56.992;24.292;2022-12-18T04:42:26;84.90;;;25.38;;
57947;SDS011;43754;56.992;24.292;2022-12-18T04:44:58;76.97;;;25.15;;
57947;SDS011;43754;56.992;24.292;2022-12-18T04:47:31;70.45;;;24.45;;
57947;SDS011;43754;56.992;24.292;2022-12-18T04:50:04;68.32;;;24.55;;
57947;SDS011;43754;56.992;24.292;2022-12-18T04:52:36;72.00;;;24.75;;
57947;SDS011;43754;56.992;24.292;2022-12-18T04:55:08;67.45;;;22.83;;
57947;SDS011;43754;56.992;24.292;2022-12-18T04:57:40;70.40;;;24.67;;
57947;SDS011;43754;56.992;24.292;2022-12-18T05:00:12;74.55;;;24.00;;
57947;SDS011;43754;56.992;24.292;2022-12-18T05:02:46;87.75;;;26.15;;
57947;SDS011;43754;56.992;24.292;2022-12-18T05:05:18;72.10;;;23.75;;
57947;SDS011;43754;56.992;24.292;2022-12-18T05:07:50;75.88;;;24.08;;
57947;SDS011;43754;56.992;24.292;2022-12-18T05:10:22;70.00;;;23.80;;
57947;SDS011;43754;56.992;24.292;2022-12-18T05:12:54;66.80;;;24.13;;
57947;SDS011;43754;56.992;24.292;2022-12-18T05:15:32;66.80;;;23.85;;
57947;SDS011;43754;56.992;24.292;2022-12-18T05:18:06;66.97;;;22.98;;
57947;SDS011;43754;56.992;24.292;2022-12-18T05:20:39;59.97;;;19.95;;
57947;SDS011;43754;56.992;24.292;2022-12-18T05:23:11;62.92;;;21.52;;
57947;SDS011;43754;56.992;24.292;2022-12-18T05:25:46;48.03;;;17.55;;
57947;SDS011;43754;56.992;24.292;2022-12-18T05:28:18;60.00;;;20.08;;
57947;SDS011;43754;56.992;24.292;2022-12-18T05:30:51;60.80;;;19.73;;
57947;SDS011;43754;56.992;24.292;2022-12-18T05:33:26;65.45;;;20.35;;
57947;SDS011;43754;56.992;24.292;2022-12-18T05:36:00;62.05;;;19.25;;
57947;SDS011;43754;56.992;24.292;2022-12-18T05:38:35;57.17;;;18.60;;
57947;SDS011;43754;56.992;24.292;2022-12-18T05:41:08;53.38;;;18.02;;
57947;SDS011;43754;56.992;24.292;2022-12-18T05:43:40;55.63;;;20.77;;
57947;SDS011;43754;56.992;24.292;2022-12-18T05:46:14;60.35;;;21.95;;
57947;SDS011;43754;56.992;24.292;2022-12-18T05:48:50;58.33;;;21.17;;
57947;SDS011;43754;56.992;24.292;2022-12-18T05:51:22;56.47;;;19.95;;
57947;SDS011;43754;56.992;24.292;2022-12-18T05:53:54;125.97;;;44.42;;
57947;SDS011;43754;56.992;24.292;2022-12-18T05:56:26;149.95;;;49.38;;
57947;SDS011;43754;56.992;24.292;2022-12-18T05:58:58;153.52;;;46.33;;
57947;SDS011;43754;56.992;24.292;2022-12-18T06:01:30;198.15;;;59.95;;
57947;SDS011;43754;56.992;24.292;2022-12-18T06:04:04;107.68;;;35.20;;
57947;SDS011;43754;56.992;24.292;2022-12-18T06:06:37;102.15;;;36.17;;
57947;SDS011;43754;56.992;24.292;2022-12-18T06:09:09;104.88;;;34.55;;
57947;SDS011;43754;56.992;24.292;2022-12-18T06:11:41;107.53;;;35.78;;
57947;SDS011;43754;56.992;24.292;2022-12-18T06:14:13;125.75;;;43.15;;
57947;SDS011;43754;56.992;24.292;2022-12-18T06:16:45;117.13;;;38.55;;
57947;SDS011;43754;56.992;24.292;2022-12-18T06:19:18;211.25;;;69.65;;
57947;SDS011;43754;56.992;24.292;2022-12-18T06:21:50;151.88;;;52.60;;
57947;SDS011;43754;56.992;24.292;2022-12-18T06:24:22;204.73;;;70.07;;
57947;SDS011;43754;56.992;24.292;2022-12-18T06:26:54;209.88;;;72.07;;
57947;SDS011;43754;56.992;24.292;2022-12-18T06:29:26;150.30;;;52.03;;
57947;SDS011;43754;56.992;24.292;2022-12-18T06:31:58;129.70;;;44.22;;
57947;SDS011;43754;56.992;24.292;2022-12-18T06:34:33;97.68;;;33.20;;
57947;SDS011;43754;56.992;24.292;2022-12-18T06:37:05;98.45;;;33.67;;
57947;SDS011;43754;56.992;24.292;2022-12-18T06:39:37;68.45;;;26.55;;
57947;SDS011;43754;56.992;24.292;2022-12-18T06:42:09;55.50;;;21.83;;
57947;SDS011;43754;56.992;24.292;2022-12-18T06:44:41;62.53;;;24.00;;
57947;SDS011;43754;56.992;24.292;2022-12-18T06:47:13;64.80;;;24.02;;
57947;SDS011;43754;56.992;24.292;2022-12-18T06:49:47;57.67;;;22.20;;
57947;SDS011;43754;56.992;24.292;2022-12-18T06:52:19;57.22;;;20.30;;
57947;SDS011;43754;56.992;24.292;2022-12-18T06:54:51;55.25;;;19.85;;
57947;SDS011;43754;56.992;24.292;2022-12-18T06:57:23;48.92;;;20.90;;
57947;SDS011;43754;56.992;24.292;2022-12-18T06:59:55;43.47;;;17.77;;
57947;SDS011;43754;56.992;24.292;2022-12-18T07:02:27;39.22;;;15.45;;
57947;SDS011;43754;56.992;24.292;2022-12-18T07:05:00;40.90;;;17.50;;
57947;SDS011;43754;56.992;24.292;2022-12-18T07:07:40;43.58;;;18.00;;
57947;SDS011;43754;56.992;24.292;2022-12-18T07:10:12;36.08;;;13.82;;
57947;SDS011;43754;56.992;24.292;2022-12-18T07:12:44;36.13;;;12.20;;
57947;SDS011;43754;56.992;24.292;2022-12-18T07:15:17;42.03;;;15.25;;
57947;SDS011;43754;56.992;24.292;2022-12-18T07:17:49;55.05;;;19.30;;
57947;SDS011;43754;56.992;24.292;2022-12-18T07:20:22;117.18;;;39.05;;
57947;SDS011;43754;56.992;24.292;2022-12-18T07:22:54;118.95;;;39.10;;
57947;SDS011;43754;56.992;24.292;2022-12-18T07:25:26;107.15;;;36.40;;
57947;SDS011;43754;56.992;24.292;2022-12-18T07:27:58;129.18;;;42.28;;
57947;SDS011;43754;56.992;24.292;2022-12-18T07:30:30;76.80;;;29.13;;
57947;SDS011;43754;56.992;24.292;2022-12-18T07:33:02;60.58;;;22.83;;
57947;SDS011;43754;56.992;24.292;2022-12-18T07:35:36;104.50;;;35.30;;
57947;SDS011;43754;56.992;24.292;2022-12-18T07:38:08;103.63;;;39.72;;
57947;SDS011;43754;56.992;24.292;2022-12-18T07:40:40;112.28;;;40.08;;
57947;SDS011;43754;56.992;24.292;2022-12-18T07:43:12;126.55;;;41.90;;
57947;SDS011;43754;56.992;24.292;2022-12-18T07:45:44;92.35;;;35.63;;
57947;SDS011;43754;56.992;24.292;2022-12-18T07:48:16;73.90;;;27.63;;
57947;SDS011;43754;56.992;24.292;2022-12-18T07:50:49;67.50;;;25.05;;
57947;SDS011;43754;56.992;24.292;2022-12-18T07:53:21;69.82;;;26.35;;
57947;SDS011;43754;56.992;24.292;2022-12-18T07:55:54;52.22;;;22.63;;
57947;SDS011;43754;56.992;24.292;2022-12-18T07:58:47;67.05;;;26.00;;
57947;SDS011;43754;56.992;24.292;2022-12-18T08:01:19;70.40;;;25.40;;
57947;SDS011;43754;56.992;24.292;2022-12-18T08:03:51;82.30;;;29.90;;
57947;SDS011;43754;56.992;24.292;2022-12-18T08:06:25;65.13;;;25.55;;
57947;SDS011;43754;56.992;24.292;2022-12-18T08:08:57;77.63;;;29.27;;
57947;SDS011;43754;56.992;24.292;2022-12-18T08:11:29;64.28;;;25.98;;
57947;SDS011;43754;56.992;24.292;2022-12-18T08:14:01;73.93;;;27.33;;
57947;SDS011;43754;56.992;24.292;2022-12-18T08:16:33;67.45;;;24.27;;
57947;SDS011;43754;56.992;24.292;2022-12-18T08:19:05;123.32;;;49.38;;
57947;SDS011;43754;56.992;24.292;2022-12-18T08:21:41;86.90;;;30.98;;
57947;SDS011;43754;56.992;24.292;2022-12-18T08:24:13;80.15;;;29.60;;
57947;SDS011;43754;56.992;24.292;2022-12-18T08:26:45;66.65;;;26.80;;
57947;SDS011;43754;56.992;24.292;2022-12-18T08:29:37;44.80;;;23.33;;
57947;SDS011;43754;56.992;24.292;2022-12-18T08:32:09;42.17;;;19.80;;
57947;SDS011;43754;56.992;24.292;2022-12-18T08:34:42;46.60;;;20.10;;
57947;SDS011;43754;56.992;24.292;2022-12-18T08:37:15;48.42;;;23.13;;
57947;SDS011;43754;56.992;24.292;2022-12-18T08:39:47;79.53;;;29.80;;
57947;SDS011;43754;56.992;24.292;2022-12-18T08:42:19;75.60;;;27.45;;
57947;SDS011;43754;56.992;24.292;2022-12-18T08:45:09;67.18;;;26.75;;
57947;SDS011;43754;56.992;24.292;2022-12-18T08:47:42;45.22;;;20.42;;
57947;SDS011;43754;56.992;24.292;2022-12-18T08:50:13;136.35;;;54.03;;
57947;SDS011;43754;56.992;24.292;2022-12-18T08:52:47;71.05;;;27.27;;
57947;SDS011;43754;56.992;24.292;2022-12-18T08:55:19;186.63;;;68.60;;
57947;SDS011;43754;56.992;24.292;2022-12-18T08:57:53;54.92;;;23.75;;
57947;SDS011;43754;56.992;24.292;2022-12-18T09:00:25;82.88;;;36.78;;
57947;SDS011;43754;56.992;24.292;2022-12-18T09:02:57;52.88;;;25.02;;
57947;SDS011;43754;56.992;24.292;2022-12-18T09:05:29;59.65;;;25.95;;
57947;SDS011;43754;56.992;24.292;2022-12-18T09:08:03;71.40;;;34.65;;
57947;SDS011;43754;56.992;24.292;2022-12-18T09:10:41;54.55;;;22.58;;
57947;SDS011;43754;56.992;24.292;2022-12-18T09:13:14;57.03;;;25.65;;
57947;SDS011;43754;56.992;24.292;2022-12-18T09:15:48;53.67;;;22.48;;
57947;SDS011;43754;56.992;24.292;2022-12-18T09:18:21;49.33;;;21.50;;
57947;SDS011;43754;56.992;24.292;2022-12-18T09:20:54;52.00;;;28.20;;
57947;SDS011;43754;56.992;24.292;2022-12-18T09:23:28;49.72;;;21.70;;
57947;SDS011;43754;56.992;24.292;2022-12-18T09:26:00;50.00;;;23.05;;
57947;SDS011;43754;56.992;24.292;2022-12-18T09:28:32;39.83;;;15.27;;
57947;SDS011;43754;56.992;24.292;2022-12-18T09:31:05;38.22;;;16.45;;
57947;SDS011;43754;56.992;24.292;2022-12-18T09:33:39;53.05;;;18.90;;
57947;SDS011;43754;56.992;24.292;2022-12-18T09:36:11;42.78;;;20.65;;
57947;SDS011;43754;56.992;24.292;2022-12-18T09:38:46;35.25;;;16.25;;
57947;SDS011;43754;56.992;24.292;2022-12-18T09:41:28;37.33;;;17.38;;
57947;SDS011;43754;56.992;24.292;2022-12-18T09:44:12;30.75;;;15.25;;
57947;SDS011;43754;56.992;24.292;2022-12-18T09:46:50;37.38;;;16.90;;
57947;SDS011;43754;56.992;24.292;2022-12-18T09:49:34;34.55;;;16.85;;
57947;SDS011;43754;56.992;24.292;2022-12-18T09:52:11;41.88;;;18.77;;
57947;SDS011;43754;56.992;24.292;2022-12-18T09:54:50;35.85;;;16.35;;
57947;SDS011;43754;56.992;24.292;2022-12-18T09:57:25;38.15;;;16.85;;
57947;SDS011;43754;56.992;24.292;2022-12-18T09:59:58;62.72;;;31.50;;
57947;SDS011;43754;56.992;24.292;2022-12-18T10:02:41;43.92;;;22.50;;
57947;SDS011;43754;56.992;24.292;2022-12-18T10:05:16;56.10;;;28.05;;
57947;SDS011;43754;56.992;24.292;2022-12-18T10:07:54;48.63;;;24.02;;
57947;SDS011;43754;56.992;24.292;2022-12-18T10:10:36;53.17;;;27.50;;
57947;SDS011;43754;56.992;24.292;2022-12-18T10:13:15;67.00;;;30.55;;
57947;SDS011;43754;56.992;24.292;2022-12-18T10:15:58;39.42;;;18.15;;
57947;SDS011;43754;56.992;24.292;2022-12-18T10:18:44;52.25;;;27.27;;
57947;SDS011;43754;56.992;24.292;2022-12-18T10:21:30;50.75;;;27.38;;
57947;SDS011;43754;56.992;24.292;2022-12-18T10:24:09;31.60;;;16.73;;
57947;SDS011;43754;56.992;24.292;2022-12-18T10:26:50;32.33;;;15.00;;
57947;SDS011;43754;56.992;24.292;2022-12-18T10:29:24;56.38;;;25.40;;
57947;SDS011;43754;56.992;24.292;2022-12-18T10:31:56;56.25;;;29.48;;
57947;SDS011;43754;56.992;24.292;2022-12-18T10:34:28;40.45;;;20.08;;
57947;SDS011;43754;56.992;24.292;2022-12-18T10:37:00;67.85;;;31.23;;
57947;SDS011;43754;56.992;24.292;2022-12-18T10:39:37;52.20;;;23.30;;
57947;SDS011;43754;56.992;24.292;2022-12-18T10:42:14;44.75;;;23.35;;
57947;SDS011;43754;56.992;24.292;2022-12-18T10:44:48;48.97;;;23.38;;
57947;SDS011;43754;56.992;24.292;2022-12-18T10:47:32;55.13;;;26.48;;
57947;SDS011;43754;56.992;24.292;2022-12-18T10:50:11;68.10;;;31.48;;
57947;SDS011;43754;56.992;24.292;2022-12-18T10:52:59;44.60;;;20.55;;
57947;SDS011;43754;56.992;24.292;2022-12-18T10:55:34;46.88;;;21.67;;
57947;SDS011;43754;56.992;24.292;2022-12-18T10:58:24;58.88;;;26.98;;
57947;SDS011;43754;56.992;24.292;2022-12-18T11:01:03;75.72;;;32.53;;
57947;SDS011;43754;56.992;24.292;2022-12-18T11:03:40;66.38;;;32.30;;
57947;SDS011;43754;56.992;24.292;2022-12-18T11:06:13;45.40;;;22.20;;
57947;SDS011;43754;56.992;24.292;2022-12-18T11:08:57;46.25;;;22.17;;
57947;SDS011;43754;56.992;24.292;2022-12-18T11:11:31;41.05;;;19.02;;
57947;SDS011;43754;56.992;24.292;2022-12-18T11:14:06;40.90;;;21.45;;
57947;SDS011;43754;56.992;24.292;2022-12-18T11:16:50;59.05;;;26.17;;
57947;SDS011;43754;56.992;24.292;2022-12-18T11:19:43;73.43;;;26.95;;
57947;SDS011;43754;56.992;24.292;2022-12-18T11:22:19;88.78;;;30.67;;
57947;SDS011;43754;56.992;24.292;2022-12-18T11:24:55;50.75;;;21.17;;
57947;SDS011;43754;56.992;24.292;2022-12-18T11:27:51;48.97;;;22.98;;
57947;SDS011;43754;56.992;24.292;2022-12-18T11:30:26;44.92;;;23.05;;
57947;SDS011;43754;56.992;24.292;2022-12-18T11:33:01;49.15;;;22.38;;
57947;SDS011;43754;56.992;24.292;2022-12-18T11:35:41;55.00;;;24.55;;
57947;SDS011;43754;56.992;24.292;2022-12-18T11:38:20;57.70;;;26.10;;
57947;SDS011;43754;56.992;24.292;2022-12-18T11:40:57;78.88;;;39.65;;
57947;SDS011;43754;56.992;24.292;2022-12-18T11:43:33;63.25;;;30.80;;
57947;SDS011;43754;56.992;24.292;2022-12-18T11:46:11;49.45;;;25.42;;
57947;SDS011;43754;56.992;24.292;2022-12-18T11:48:52;62.88;;;29.50;;
57947;SDS011;43754;56.992;24.292;2022-12-18T11:51:32;74.95;;;33.60;;
57947;SDS011;43754;56.992;24.292;2022-12-18T11:54:09;69.10;;;31.92;;
57947;SDS011;43754;56.992;24.292;2022-12-18T11:56:46;89.38;;;41.00;;
57947;SDS011;43754;56.992;24.292;2022-12-18T11:59:23;70.72;;;32.25;;
57947;SDS011;43754;56.992;24.292;2022-12-18T12:02:12;50.65;;;25.90;;
57947;SDS011;43754;56.992;24.292;2022-12-18T12:05:24;49.72;;;24.13;;
57947;SDS011;43754;56.992;24.292;2022-12-18T12:08:05;44.10;;;20.70;;
57947;SDS011;43754;56.992;24.292;2022-12-18T12:10:47;45.60;;;21.10;;
57947;SDS011;43754;56.992;24.292;2022-12-18T12:13:30;44.83;;;20.55;;
57947;SDS011;43754;56.992;24.292;2022-12-18T12:16:15;42.15;;;20.33;;
57947;SDS011;43754;56.992;24.292;2022-12-18T12:18:55;37.70;;;17.70;;
57947;SDS011;43754;56.992;24.292;2022-12-18T12:21:38;39.78;;;18.17;;
57947;SDS011;43754;56.992;24.292;2022-12-18T12:24:16;31.70;;;16.65;;
57947;SDS011;43754;56.992;24.292;2022-12-18T12:27:02;34.22;;;14.90;;
57947;SDS011;43754;56.992;24.292;2022-12-18T12:29:45;38.22;;;18.58;;
57947;SDS011;43754;56.992;24.292;2022-12-18T12:32:30;33.28;;;17.02;;
57947;SDS011;43754;56.992;24.292;2022-12-18T12:35:22;40.97;;;18.60;;
57947;SDS011;43754;56.992;24.292;2022-12-18T12:38:05;43.35;;;20.75;;
57947;SDS011;43754;56.992;24.292;2022-12-18T12:40:43;51.20;;;23.95;;
57947;SDS011;43754;56.992;24.292;2022-12-18T12:43:29;46.72;;;22.48;;
57947;SDS011;43754;56.992;24.292;2022-12-18T12:46:07;57.05;;;24.60;;
57947;SDS011;43754;56.992;24.292;2022-12-18T12:48:42;59.83;;;26.83;;
57947;SDS011;43754;56.992;24.292;2022-12-18T12:51:19;89.97;;;38.15;;
57947;SDS011;43754;56.992;24.292;2022-12-18T12:53:53;104.60;;;45.25;;
57947;SDS011;43754;56.992;24.292;2022-12-18T12:56:34;108.63;;;43.83;;
57947;SDS011;43754;56.992;24.292;2022-12-18T12:59:13;125.13;;;56.58;;
57947;SDS011;43754;56.992;24.292;2022-12-18T13:01:52;100.18;;;44.50;;
57947;SDS011;43754;56.992;24.292;2022-12-18T13:04:30;93.88;;;41.25;;
57947;SDS011;43754;56.992;24.292;2022-12-18T13:07:12;75.03;;;34.45;;
57947;SDS011;43754;56.992;24.292;2022-12-18T13:12:53;58.20;;;26.17;;
57947;SDS011;43754;56.992;24.292;2022-12-18T13:15:38;53.53;;;24.52;;
57947;SDS011;43754;56.992;24.292;2022-12-18T13:18:14;57.35;;;27.05;;
57947;SDS011;43754;56.992;24.292;2022-12-18T13:20:50;54.88;;;24.63;;
57947;SDS011;43754;56.992;24.292;2022-12-18T13:23:35;52.47;;;23.58;;
57947;SDS011;43754;56.992;24.292;2022-12-18T13:26:29;56.10;;;27.10;;
57947;SDS011;43754;56.992;24.292;2022-12-18T13:29:03;77.35;;;34.13;;
57947;SDS011;43754;56.992;24.292;2022-12-18T13:38:02;74.88;;;32.00;;
57947;SDS011;43754;56.992;24.292;2022-12-18T13:40:54;77.93;;;33.00;;
57947;SDS011;43754;56.992;24.292;2022-12-18T13:43:29;79.60;;;33.72;;
57947;SDS011;43754;56.992;24.292;2022-12-18T13:46:06;87.65;;;34.70;;
57947;SDS011;43754;56.992;24.292;2022-12-18T13:48:57;85.90;;;35.33;;
57947;SDS011;43754;56.992;24.292;2022-12-18T13:51:32;95.20;;;41.83;;
57947;SDS011;43754;56.992;24.292;2022-12-18T13:54:13;120.75;;;46.95;;
57947;SDS011;43754;56.992;24.292;2022-12-18T13:56:52;116.90;;;55.63;;
57947;SDS011;43754;56.992;24.292;2022-12-18T13:59:25;112.47;;;61.25;;
57947;SDS011;43754;56.992;24.292;2022-12-18T14:01:59;105.80;;;49.63;;
57947;SDS011;43754;56.992;24.292;2022-12-18T14:04:35;85.05;;;40.03;;
57947;SDS011;43754;56.992;24.292;2022-12-18T14:07:10;104.50;;;42.38;;
57947;SDS011;43754;56.992;24.292;2022-12-18T14:09:46;96.68;;;41.22;;
57947;SDS011;43754;56.992;24.292;2022-12-18T14:12:27;88.60;;;39.25;;
57947;SDS011;43754;56.992;24.292;2022-12-18T14:15:21;83.18;;;36.58;;
57947;SDS011;43754;56.992;24.292;2022-12-18T14:18:01;73.53;;;31.48;;
57947;SDS011;43754;56.992;24.292;2022-12-18T14:23:28;94.15;;;37.92;;
57947;SDS011;43754;56.992;24.292;2022-12-18T14:26:02;93.07;;;33.55;;
57947;SDS011;43754;56.992;24.292;2022-12-18T14:28:52;93.95;;;35.80;;
57947;SDS011;43754;56.992;24.292;2022-12-18T14:31:26;84.13;;;31.52;;
57947;SDS011;43754;56.992;24.292;2022-12-18T14:33:59;63.75;;;25.00;;
57947;SDS011;43754;56.992;24.292;2022-12-18T14:36:31;64.60;;;27.40;;
57947;SDS011;43754;56.992;24.292;2022-12-18T14:39:03;228.27;;;110.32;;
57947;SDS011;43754;56.992;24.292;2022-12-18T14:41:35;64.10;;;30.85;;
57947;SDS011;43754;56.992;24.292;2022-12-18T14:44:11;52.13;;;21.95;;
57947;SDS011;43754;56.992;24.292;2022-12-18T14:46:44;52.03;;;21.25;;
57947;SDS011;43754;56.992;24.292;2022-12-18T14:49:19;39.75;;;20.17;;
57947;SDS011;43754;56.992;24.292;2022-12-18T14:51:55;45.47;;;18.88;;
57947;SDS011;43754;56.992;24.292;2022-12-18T14:54:29;53.95;;;21.88;;
57947;SDS011;43754;56.992;24.292;2022-12-18T14:57:03;47.78;;;18.45;;
57947;SDS011;43754;56.992;24.292;2022-12-18T14:59:55;45.47;;;19.03;;
57947;SDS011;43754;56.992;24.292;2022-12-18T15:02:35;50.10;;;21.50;;
57947;SDS011;43754;56.992;24.292;2022-12-18T15:05:16;50.70;;;22.80;;
57947;SDS011;43754;56.992;24.292;2022-12-18T15:07:51;55.75;;;22.83;;
57947;SDS011;43754;56.992;24.292;2022-12-18T15:10:24;41.08;;;18.17;;
57947;SDS011;43754;56.992;24.292;2022-12-18T15:13:06;39.80;;;20.88;;
57947;SDS011;43754;56.992;24.292;2022-12-18T15:15:48;32.42;;;17.02;;